LSZGLSME

Guest
Details From LSZG - Grenchen
To LSME - Emmen
Flight Number -
Tags generated
Created
Modified
Stats Distance 37 nm / 68 km
Max Altitude 3,200 ft / 975 m
Waypoints 3
Social Downloads 1
Likes 0
Share VATSIM

Download

Looking for another format? Having issues loading an existing format? Contact us
Advertisement - Login to hide

Notes

Basic altitude profile: - Ascent Rate: 2500ft/min - Ascent Speed: 250kts - Cruise Altitude: 35000ft - Cruise Speed: 420kts - Descent Rate: 1500ft/min - Descent Speed: 250kts Options: - Use NATs: yes - Use PACOTS: yes - Use low airways: yes - Use high airways: no

Route

LSZG BERSU LSME

ID Type Via Altitude Latitude Longitude Leg Dist Tot Dist Heading (true) Name
O LSZG APT - 0 ft / 0 m 47.18159˚ 7.41584˚ - 0 nm - Grenchen
BERSU FIX - 3,200 ft / 975 m 47.13556˚ 7.94139˚ 21 nm 21 nm 97° / 98° -
O LSME APT - 0 ft / 0 m 47.09237˚ 8.30512˚ 15 nm 36 nm 100° / 100° Emmen

Altitude Profile

Advertisement - Login to hide

LSZG

Details ICAO LSZG
Name Grenchen
Region Switzerland
Timezone Europe/Zurich (UTC+1.0)
Stats Elevation 1,411 ft / 430 m (AMSL)
Location 47.181591° 7.415841°
Runways 2
Magnetic Variation 2.061° E

METAR

LSZG 180520Z AUTO 23010KT 0650 SN BKN/// M00/M01 Q1023

Decode

TAF

Not found

Departure Runways

ID Width Length Bearing (true) Bearing (mag) Surface Threshold Offset Overrun Length
07C 75 ft / 23 m 3,273 ft / 998 m 65.56° 63.50° Asphalt 443 ft / 135 m 0 ft / 0 m
07L 98 ft / 30 m 1,637 ft / 499 m 66.08° 64.02° Grass 213 ft / 65 m 0 ft / 0 m
25C 75 ft / 23 m 3,273 ft / 998 m 245.56° 243.50° Asphalt 0 ft / 0 m 0 ft / 0 m
25R 98 ft / 30 m 1,637 ft / 499 m 246.08° 244.02° Grass 85 ft / 26 m 0 ft / 0 m

LSME

Details ICAO LSME
Name Emmen
Region Switzerland
Timezone Europe/Zurich (UTC+1.0)
Stats Elevation 1,400 ft / 427 m (AMSL)
Location 47.092369° 8.305118°
Runways 1
Magnetic Variation 2.285° E

METAR

LSME 180450Z AUTO VRB02KT 9999NDV OVC050 M00/M04 Q1023 RMK

Decode

TAF

Not found

Destination Runways

ID Width Length Bearing (true) Bearing (mag) Surface Threshold Offset Overrun Length
04 130 ft / 40 m 8,202 ft / 2,500 m 37.49° 35.21° Asphalt 363 ft / 111 m 810 ft / 247 m
22 130 ft / 40 m 8,202 ft / 2,500 m 217.51° 215.23° Asphalt 596 ft / 182 m 747 ft / 228 m

Approach Navaids

Runway Type Ident Frequency Range Bearing (true) Bearing (mag) Slope Elevation
22 Localiser IEM 110.35 MHz 18 nm / 33 km 217.57° 215.28° - 1,400 ft / 427 m (AMSL)
22 Glidescope IEM 110.35 MHz 10 nm / 19 km 217.50° 215.21° 4.00° 1,406 ft / 429 m (AMSL)
22 DME IEM 110.35 MHz 18 nm / 33 km - - - 1,406 ft / 429 m (AMSL)